createdAt,value
2022-09-25T00:01:26.579Z,100.00
2022-09-25T00:03:30.992Z,100.00
2022-09-25T00:05:36.921Z,100.00
2022-09-25T00:07:39.482Z,100.00
2022-09-25T00:09:42.173Z,100.00
2022-09-25T00:11:44.771Z,100.00
2022-09-25T00:13:49.548Z,100.00
2022-09-25T00:15:54.161Z,100.00
2022-09-25T00:17:56.719Z,100.00
2022-09-25T00:19:58.397Z,100.00
2022-09-25T00:22:01.074Z,100.00
2022-09-25T00:24:06.260Z,100.00
2022-09-25T00:26:10.130Z,100.00
2022-09-25T00:28:16.394Z,100.00
2022-09-25T00:30:22.287Z,100.00
2022-09-25T00:32:25.133Z,100.00
2022-09-25T00:34:27.739Z,100.00
2022-09-25T00:36:31.998Z,100.00
2022-09-25T00:38:36.663Z,100.00
2022-09-25T00:40:39.328Z,100.00
2022-09-25T00:42:41.940Z,100.00
2022-09-25T00:44:56.466Z,100.00
2022-09-25T00:47:00.677Z,100.00
2022-09-25T00:49:06.844Z,100.00
2022-09-25T00:51:09.525Z,100.00
2022-09-25T00:53:17.762Z,100.00
2022-09-25T00:55:23.698Z,100.00
2022-09-25T00:57:30.319Z,100.00
2022-09-25T00:59:36.609Z,100.00
2022-09-25T01:01:39.556Z,100.00
2022-09-25T01:03:44.511Z,100.00
2022-09-25T01:05:47.673Z,100.00
2022-09-25T01:07:52.599Z,100.00
2022-09-25T01:09:59.277Z,100.00
2022-09-25T01:12:01.921Z,100.00
2022-09-25T01:14:06.999Z,100.00
2022-09-25T01:16:17.137Z,100.00
2022-09-25T01:18:33.427Z,100.00
2022-09-25T01:21:01.089Z,100.00
2022-09-25T01:23:17.426Z,100.00
2022-09-25T01:25:31.000Z,100.00
2022-09-25T01:27:47.082Z,100.00
2022-09-25T01:30:00.164Z,100.00
2022-09-25T01:32:07.750Z,100.00
2022-09-25T01:34:16.276Z,100.00
2022-09-25T01:36:27.922Z,100.00
2022-09-25T01:38:36.093Z,100.00
2022-09-25T01:40:47.785Z,100.00
2022-09-25T01:42:55.597Z,100.00
2022-09-25T01:45:04.802Z,100.00
2022-09-25T01:47:10.997Z,100.00
2022-09-25T01:49:20.315Z,100.00
2022-09-25T01:51:28.565Z,100.00
2022-09-25T01:53:35.355Z,100.00
2022-09-25T01:55:42.957Z,100.00
2022-09-25T01:57:51.305Z,100.00
2022-09-25T02:00:00.239Z,100.00
2022-09-25T02:02:08.665Z,100.00
2022-09-25T02:04:14.493Z,100.00
2022-09-25T02:06:21.477Z,100.00
2022-09-25T02:08:28.516Z,100.00
2022-09-25T02:10:37.111Z,100.00
2022-09-25T02:12:43.746Z,100.00
2022-09-25T02:14:49.826Z,100.00
2022-09-25T02:16:57.222Z,100.00
2022-09-25T02:19:19.051Z,100.00
2022-09-25T02:21:28.921Z,100.00
2022-09-25T02:23:40.732Z,100.00
2022-09-25T02:25:47.141Z,100.00
2022-09-25T02:27:49.854Z,100.00
2022-09-25T02:29:52.879Z,100.00
2022-09-25T02:31:59.666Z,100.00
2022-09-25T02:34:04.571Z,100.00
2022-09-25T02:36:07.596Z,100.00
2022-09-25T02:38:10.443Z,100.00
2022-09-25T02:40:13.087Z,100.00
2022-09-25T02:42:29.697Z,100.00
2022-09-25T02:44:43.485Z,100.00
2022-09-25T02:46:59.061Z,100.00
2022-09-25T02:49:17.260Z,100.00
2022-09-25T02:51:28.104Z,100.00
2022-09-25T02:53:38.068Z,100.00
2022-09-25T02:55:44.934Z,100.00
2022-09-25T02:57:54.153Z,100.00
2022-09-25T03:00:02.546Z,100.00
2022-09-25T03:02:05.528Z,100.00
2022-09-25T03:04:10.851Z,100.00
2022-09-25T03:06:13.593Z,100.00
2022-09-25T03:08:34.197Z,100.00
2022-09-25T03:10:38.295Z,100.00
2022-09-25T03:12:46.516Z,100.00
2022-09-25T03:14:49.120Z,100.00
2022-09-25T03:16:56.170Z,100.00
2022-09-25T03:18:58.789Z,100.00
2022-09-25T03:21:04.267Z,100.00
2022-09-25T03:23:07.194Z,100.00
2022-09-25T03:25:10.038Z,100.00
2022-09-25T03:27:12.692Z,100.00
2022-09-25T03:29:17.272Z,100.00
2022-09-25T03:31:20.229Z,100.00
2022-09-25T03:33:23.077Z,100.00
2022-09-25T03:35:26.720Z,100.00
2022-09-25T03:37:32.331Z,100.00
2022-09-25T03:39:34.908Z,100.00
2022-09-25T03:41:38.046Z,100.00
2022-09-25T03:43:43.401Z,100.00
2022-09-25T03:45:46.102Z,100.00
2022-09-25T03:47:48.730Z,100.00
2022-09-25T03:49:51.290Z,100.00
2022-09-25T03:51:53.865Z,100.00
2022-09-25T03:53:58.109Z,100.00
2022-09-25T03:56:01.085Z,100.00
2022-09-25T03:58:03.863Z,100.00
2022-09-25T04:00:07.726Z,100.00
2022-09-25T04:02:10.638Z,100.00
2022-09-25T04:04:14.361Z,100.00
2022-09-25T04:06:19.930Z,100.00
2022-09-25T04:08:23.080Z,100.00
2022-09-25T04:10:27.730Z,100.00
2022-09-25T04:12:30.354Z,100.00
2022-09-25T04:14:32.939Z,100.00
2022-09-25T04:16:35.627Z,100.00
2022-09-25T04:18:42.835Z,100.00
2022-09-25T04:20:45.743Z,100.00
2022-09-25T04:22:48.355Z,100.00
2022-09-25T04:24:50.068Z,100.00
2022-09-25T04:26:54.119Z,100.00
2022-09-25T04:28:56.711Z,100.00
2022-09-25T04:30:59.695Z,100.00
2022-09-25T04:33:20.028Z,100.00
2022-09-25T04:35:22.653Z,100.00
2022-09-25T04:37:26.207Z,100.00
2022-09-25T04:39:28.846Z,100.00
2022-09-25T04:41:31.426Z,100.00
2022-09-25T04:43:35.462Z,100.00
2022-09-25T04:45:38.392Z,100.00
2022-09-25T04:47:40.984Z,100.00
2022-09-25T04:49:43.558Z,100.00
2022-09-25T04:51:46.186Z,100.00
2022-09-25T04:53:48.817Z,100.00
2022-09-25T04:55:51.713Z,100.00
2022-09-25T04:57:58.712Z,100.00
2022-09-25T05:00:03.656Z,100.00
2022-09-25T05:02:06.560Z,100.00
2022-09-25T05:04:09.658Z,100.00
2022-09-25T05:06:12.518Z,100.00
2022-09-25T05:08:15.190Z,100.00
2022-09-25T05:10:17.939Z,100.00
2022-09-25T05:12:20.878Z,100.00
2022-09-25T05:14:23.681Z,100.00
2022-09-25T05:16:28.963Z,100.00
2022-09-25T05:18:31.581Z,100.00
2022-09-25T05:20:35.840Z,100.00
2022-09-25T05:22:38.706Z,100.00
2022-09-25T05:24:41.277Z,100.00
2022-09-25T05:26:43.883Z,100.00
2022-09-25T05:28:50.081Z,100.00
2022-09-25T05:30:52.837Z,100.00
2022-09-25T05:32:59.065Z,100.00
2022-09-25T05:35:01.642Z,100.00
2022-09-25T05:37:04.490Z,100.00
2022-09-25T05:39:09.844Z,100.00
2022-09-25T05:41:16.476Z,100.00
2022-09-25T05:43:19.075Z,100.00
2022-09-25T05:45:23.133Z,100.00
2022-09-25T05:47:25.695Z,100.00
2022-09-25T05:49:29.699Z,100.00
2022-09-25T05:51:33.048Z,100.00
2022-09-25T05:53:35.955Z,100.00
2022-09-25T05:55:38.545Z,100.00
2022-09-25T05:57:41.119Z,100.00
2022-09-25T05:59:43.689Z,100.00
2022-09-25T06:01:46.375Z,100.00
2022-09-25T06:03:48.978Z,100.00
2022-09-25T06:05:52.882Z,100.00
2022-09-25T06:07:56.134Z,100.00
2022-09-25T06:09:58.744Z,100.00
2022-09-25T06:12:01.487Z,100.00
2022-09-25T06:14:04.238Z,100.00
2022-09-25T06:16:14.990Z,100.00
2022-09-25T06:18:17.757Z,100.00
2022-09-25T06:20:21.871Z,100.00
2022-09-25T06:22:25.819Z,100.00
2022-09-25T06:24:28.453Z,100.00
2022-09-25T06:26:31.455Z,100.00
2022-09-25T06:28:34.477Z,100.00
2022-09-25T06:30:38.358Z,100.00
2022-09-25T06:32:41.008Z,100.00
2022-09-25T06:34:43.588Z,100.00
2022-09-25T06:36:46.191Z,100.00
2022-09-25T06:38:50.133Z,100.00
2022-09-25T06:40:52.848Z,100.00
2022-09-25T06:42:58.684Z,100.00
2022-09-25T06:45:01.358Z,100.00
2022-09-25T06:47:03.957Z,100.00
2022-09-25T06:49:06.585Z,100.00
2022-09-25T06:51:09.365Z,100.00
2022-09-25T06:53:13.081Z,100.00
2022-09-25T06:55:17.164Z,100.00
2022-09-25T06:57:19.804Z,100.00
2022-09-25T06:59:22.421Z,100.00
2022-09-25T07:01:25.151Z,100.00
2022-09-25T07:03:45.310Z,100.00
2022-09-25T07:05:49.013Z,100.00
2022-09-25T07:07:51.673Z,100.00
2022-09-25T07:09:54.303Z,100.00
2022-09-25T07:11:58.261Z,100.00
2022-09-25T07:14:00.944Z,100.00
2022-09-25T07:16:06.368Z,100.00
2022-09-25T07:18:09.041Z,100.00
2022-09-25T07:20:15.138Z,100.00
2022-09-25T07:22:17.767Z,100.00
2022-09-25T07:24:21.914Z,100.00
2022-09-25T07:26:25.752Z,100.00
2022-09-25T07:28:29.657Z,100.00
2022-09-25T07:30:32.309Z,100.00
2022-09-25T07:32:35.007Z,100.00
2022-09-25T07:34:38.039Z,100.00
2022-09-25T07:36:42.533Z,100.00
2022-09-25T07:38:46.131Z,100.00
2022-09-25T07:40:50.124Z,100.00
2022-09-25T07:42:53.065Z,100.00
2022-09-25T07:44:57.025Z,100.00
2022-09-25T07:47:01.336Z,100.00
2022-09-25T07:49:04.004Z,100.00
2022-09-25T07:51:08.296Z,100.00
2022-09-25T07:53:11.602Z,100.00
2022-09-25T07:55:14.234Z,100.00
2022-09-25T07:57:20.458Z,100.00
2022-09-25T07:59:23.048Z,100.00
2022-09-25T08:01:27.101Z,100.00
2022-09-25T08:03:30.214Z,100.00
2022-09-25T08:05:32.807Z,100.00
2022-09-25T08:07:35.541Z,100.00
2022-09-25T08:09:38.122Z,100.00
2022-09-25T08:11:41.079Z,100.00
2022-09-25T08:13:44.419Z,100.00
2022-09-25T08:15:47.039Z,100.00
2022-09-25T08:17:50.996Z,100.00
2022-09-25T08:19:53.600Z,100.00
2022-09-25T08:21:56.365Z,100.00
2022-09-25T08:23:58.933Z,100.00
2022-09-25T08:26:01.936Z,100.00
2022-09-25T08:28:04.547Z,100.00
2022-09-25T08:30:08.857Z,100.00
2022-09-25T08:32:12.085Z,100.00
2022-09-25T08:34:39.472Z,100.00
2022-09-25T08:36:39.283Z,100.00
2022-09-25T08:38:41.879Z,100.00
2022-09-25T08:40:58.159Z,100.00
2022-09-25T08:43:01.260Z,100.00
2022-09-25T08:45:24.022Z,100.00
2022-09-25T08:47:46.377Z,100.00
2022-09-25T08:50:01.421Z,100.00
2022-09-25T08:52:09.171Z,100.00
2022-09-25T08:54:18.881Z,100.00
2022-09-25T08:56:24.551Z,100.00
2022-09-25T08:58:30.269Z,100.00
2022-09-25T09:00:33.263Z,100.00
2022-09-25T09:02:40.672Z,100.00
2022-09-25T09:04:47.731Z,100.00
2022-09-25T09:07:25.063Z,100.00
2022-09-25T09:09:28.352Z,100.00
2022-09-25T09:11:36.874Z,100.00
2022-09-25T09:13:49.323Z,100.00
2022-09-25T09:15:56.880Z,100.00
2022-09-25T09:18:02.355Z,100.00
2022-09-25T09:20:16.274Z,100.00
2022-09-25T09:22:25.249Z,100.00
2022-09-25T09:24:35.458Z,100.00
2022-09-25T09:26:53.301Z,100.00
2022-09-25T09:29:07.229Z,100.00
2022-09-25T09:31:17.713Z,100.00
2022-09-25T09:33:31.195Z,100.00
2022-09-25T09:35:45.364Z,100.00
2022-09-25T09:38:02.103Z,100.00
2022-09-25T09:40:21.491Z,100.00
2022-09-25T09:42:32.397Z,100.00
2022-09-25T09:44:50.042Z,100.00
2022-09-25T09:47:05.610Z,100.00
2022-09-25T09:49:14.907Z,100.00
2022-09-25T09:51:22.496Z,100.00
2022-09-25T09:53:34.044Z,100.00
2022-09-25T09:55:42.224Z,100.00
2022-09-25T09:57:48.767Z,100.00
2022-09-25T10:00:01.988Z,100.00
2022-09-25T10:02:23.733Z,100.00
2022-09-25T10:04:33.302Z,100.00
2022-09-25T10:06:39.435Z,100.00
2022-09-25T10:08:43.770Z,100.00
2022-09-25T10:10:49.167Z,100.00
2022-09-25T10:12:54.116Z,100.00
2022-09-25T10:14:58.571Z,100.00
2022-09-25T10:17:02.710Z,100.00
2022-09-25T10:19:11.139Z,100.00
2022-09-25T10:21:16.408Z,100.00
2022-09-25T10:23:33.015Z,100.00
2022-09-25T10:25:39.288Z,100.00
2022-09-25T10:27:46.113Z,100.00
2022-09-25T10:30:02.211Z,100.00
2022-09-25T10:32:05.726Z,100.00
2022-09-25T10:34:24.056Z,100.00
2022-09-25T10:36:36.694Z,100.00
2022-09-25T10:38:44.937Z,100.00
2022-09-25T10:41:00.264Z,100.00
2022-09-25T10:43:06.193Z,100.00
2022-09-25T10:45:31.030Z,100.00
2022-09-25T10:47:51.120Z,100.00
2022-09-25T10:50:12.103Z,100.00
2022-09-25T10:52:18.567Z,100.00
2022-09-25T10:54:21.194Z,100.00
2022-09-25T10:56:37.078Z,100.00
2022-09-25T10:58:44.226Z,100.00
2022-09-25T11:00:55.914Z,100.00
2022-09-25T11:03:02.086Z,100.00
2022-09-25T11:05:08.166Z,100.00
2022-09-25T11:07:20.882Z,100.00
2022-09-25T11:09:25.245Z,100.00
2022-09-25T11:11:29.826Z,100.00
2022-09-25T11:13:38.083Z,100.00
2022-09-25T11:15:40.804Z,100.00
2022-09-25T11:17:45.130Z,100.00
2022-09-25T11:20:08.950Z,100.00
2022-09-25T11:22:24.008Z,100.00
2022-09-25T11:24:37.180Z,100.00
2022-09-25T11:26:45.950Z,100.00
2022-09-25T11:28:55.838Z,100.00
2022-09-25T11:31:03.974Z,100.00
2022-09-25T11:33:16.765Z,100.00
2022-09-25T11:35:34.543Z,100.00
2022-09-25T11:37:42.189Z,100.00
2022-09-25T11:40:06.208Z,100.00
2022-09-25T11:42:18.334Z,100.00
2022-09-25T11:44:32.040Z,100.00
2022-09-25T11:46:42.777Z,100.00
2022-09-25T11:48:55.403Z,100.00
2022-09-25T11:51:06.132Z,100.00
2022-09-25T11:53:18.553Z,100.00
2022-09-25T11:55:50.840Z,100.00
2022-09-25T11:58:04.757Z,100.00
2022-09-25T12:00:12.946Z,100.00
2022-09-25T12:02:24.310Z,100.00
2022-09-25T12:04:43.829Z,100.00
2022-09-25T12:07:01.032Z,100.00
2022-09-25T12:09:16.217Z,100.00
2022-09-25T12:11:25.994Z,100.00
2022-09-25T12:13:41.245Z,100.00
2022-09-25T12:15:54.506Z,100.00
2022-09-25T12:18:08.273Z,100.00
2022-09-25T12:20:20.774Z,100.00
2022-09-25T12:22:28.499Z,100.00
2022-09-25T12:24:45.129Z,100.00
2022-09-25T12:26:57.183Z,100.00
2022-09-25T12:29:15.772Z,100.00
2022-09-25T12:31:29.465Z,100.00
2022-09-25T12:33:40.525Z,100.00
2022-09-25T12:35:51.637Z,100.00
2022-09-25T12:37:58.816Z,100.00
2022-09-25T12:40:05.165Z,100.00
2022-09-25T12:42:16.879Z,100.00
2022-09-25T12:44:27.497Z,100.00
2022-09-25T12:46:37.610Z,100.00
2022-09-25T12:48:46.074Z,100.00
2022-09-25T12:50:56.332Z,100.00
2022-09-25T12:53:03.670Z,100.00
2022-09-25T12:55:14.330Z,100.00
2022-09-25T12:57:23.320Z,100.00
2022-09-25T12:59:36.036Z,100.00
2022-09-25T13:01:46.472Z,100.00
2022-09-25T13:03:57.687Z,100.00
2022-09-25T13:06:08.351Z,100.00
2022-09-25T13:08:16.772Z,100.00
2022-09-25T13:10:26.346Z,100.00
2022-09-25T13:12:34.988Z,100.00
2022-09-25T13:14:45.093Z,100.00
2022-09-25T13:16:48.782Z,99.84
2022-09-25T13:19:12.239Z,100.00
2022-09-25T13:21:26.911Z,100.00
2022-09-25T13:23:34.602Z,100.00
2022-09-25T13:25:43.347Z,100.00
2022-09-25T13:27:48.096Z,100.00
2022-09-25T13:30:02.082Z,100.00
2022-09-25T13:32:07.762Z,100.00
2022-09-25T13:34:14.238Z,100.00
2022-09-25T13:36:32.817Z,100.00
2022-09-25T13:38:58.295Z,100.00
2022-09-25T13:41:00.950Z,100.00
2022-09-25T13:43:21.535Z,100.00
2022-09-25T13:45:32.218Z,100.00
2022-09-25T13:47:55.511Z,100.00
2022-09-25T13:50:17.639Z,100.00
2022-09-25T13:53:14.513Z,100.00
2022-09-25T13:55:21.000Z,100.00
2022-09-25T13:58:02.370Z,100.00
2022-09-25T14:00:06.477Z,100.00
2022-09-25T14:02:42.099Z,100.00
2022-09-25T14:04:48.582Z,100.00
2022-09-25T14:06:57.110Z,100.00
2022-09-25T14:09:07.572Z,100.00
2022-09-25T14:11:18.292Z,100.00
2022-09-25T14:13:23.791Z,100.00
2022-09-25T14:15:32.294Z,100.00
2022-09-25T14:17:37.912Z,100.00
2022-09-25T14:19:44.482Z,100.00
2022-09-25T14:21:48.623Z,100.00
2022-09-25T14:23:54.296Z,100.00
2022-09-25T14:26:00.690Z,100.00
2022-09-25T14:28:04.903Z,100.00
2022-09-25T14:30:13.831Z,100.00
2022-09-25T14:32:53.828Z,100.00
2022-09-25T14:35:08.840Z,100.00
2022-09-25T14:37:30.199Z,100.00
2022-09-25T14:39:39.764Z,100.00
2022-09-25T14:42:15.964Z,97.29
2022-09-25T14:44:42.224Z,95.07
2022-09-25T14:46:45.744Z,95.09
2022-09-25T14:48:51.246Z,95.20
2022-09-25T14:50:59.127Z,95.09
2022-09-25T14:53:08.203Z,93.21
2022-09-25T14:55:20.972Z,95.25
2022-09-25T14:57:26.897Z,94.56
2022-09-25T14:59:37.741Z,95.57
2022-09-25T15:01:47.908Z,96.04
2022-09-25T15:03:51.203Z,97.87
2022-09-25T15:05:56.520Z,99.03
2022-09-25T15:08:02.201Z,100.00
2022-09-25T15:10:25.463Z,100.00
2022-09-25T15:12:30.380Z,100.00
2022-09-25T15:14:34.145Z,100.00
2022-09-25T15:16:56.903Z,100.00
2022-09-25T15:19:02.068Z,100.00
2022-09-25T15:21:09.126Z,100.00
2022-09-25T15:23:18.689Z,100.00
2022-09-25T15:25:25.459Z,100.00
2022-09-25T15:27:29.294Z,98.29
2022-09-25T15:29:35.990Z,100.00
2022-09-25T15:31:39.104Z,100.00
2022-09-25T15:33:42.422Z,100.00
2022-09-25T15:35:55.076Z,100.00
2022-09-25T15:38:12.475Z,100.00
2022-09-25T15:40:28.336Z,100.00
2022-09-25T15:42:31.112Z,100.00
2022-09-25T15:44:33.854Z,99.73
2022-09-25T15:46:39.672Z,99.79
2022-09-25T15:48:51.162Z,100.00
2022-09-25T15:50:55.188Z,100.00
2022-09-25T15:53:02.292Z,100.00
2022-09-25T15:55:12.736Z,100.00
2022-09-25T15:57:17.700Z,100.00
2022-09-25T15:59:24.686Z,100.00
2022-09-25T16:01:47.667Z,100.00
2022-09-25T16:04:12.282Z,100.00
2022-09-25T16:06:17.518Z,100.00
2022-09-25T16:08:29.383Z,100.00
2022-09-25T16:10:34.524Z,100.00
2022-09-25T16:12:45.901Z,100.00
2022-09-25T16:14:48.829Z,100.00
2022-09-25T16:16:52.081Z,100.00
2022-09-25T16:18:55.868Z,100.00
2022-09-25T16:21:10.690Z,100.00
2022-09-25T16:23:31.410Z,100.00
2022-09-25T16:25:37.578Z,100.00
2022-09-25T16:27:40.240Z,100.00
2022-09-25T16:29:45.612Z,100.00
2022-09-25T16:31:53.498Z,100.00
2022-09-25T16:33:58.087Z,100.00
2022-09-25T16:36:16.214Z,100.00
2022-09-25T16:38:28.752Z,100.00
2022-09-25T16:40:34.078Z,100.00
2022-09-25T16:42:40.398Z,100.00
2022-09-25T16:44:46.785Z,100.00
2022-09-25T16:47:16.499Z,100.00
2022-09-25T16:49:19.889Z,100.00
2022-09-25T16:51:26.743Z,100.00
2022-09-25T16:53:30.190Z,100.00
2022-09-25T16:55:38.229Z,100.00
2022-09-25T16:57:45.972Z,100.00
2022-09-25T16:59:49.255Z,100.00
2022-09-25T17:01:54.420Z,100.00
2022-09-25T17:03:59.857Z,100.00
2022-09-25T17:06:02.676Z,100.00
2022-09-25T17:08:17.043Z,100.00
2022-09-25T17:10:23.066Z,100.00
2022-09-25T17:12:27.380Z,100.00
2022-09-25T17:14:31.536Z,100.00
2022-09-25T17:16:34.690Z,100.00
2022-09-25T17:18:37.573Z,100.00
2022-09-25T17:20:40.197Z,100.00
2022-09-25T17:22:42.996Z,100.00
2022-09-25T17:24:45.677Z,100.00
2022-09-25T17:26:48.686Z,100.00
2022-09-25T17:28:51.748Z,100.00
2022-09-25T17:30:56.024Z,100.00
2022-09-25T17:32:58.817Z,100.00
2022-09-25T17:35:01.869Z,100.00
2022-09-25T17:37:04.497Z,100.00
2022-09-25T17:39:07.136Z,100.00
2022-09-25T17:41:19.325Z,100.00
2022-09-25T17:43:22.125Z,100.00
2022-09-25T17:45:31.942Z,100.00
2022-09-25T17:47:35.880Z,100.00
2022-09-25T17:49:38.497Z,100.00
2022-09-25T17:51:41.798Z,100.00
2022-09-25T17:53:45.363Z,100.00
2022-09-25T17:55:53.501Z,100.00
2022-09-25T17:57:56.677Z,100.00
2022-09-25T17:59:59.305Z,100.00
2022-09-25T18:02:01.979Z,100.00
2022-09-25T18:04:21.942Z,100.00
2022-09-25T18:06:26.303Z,100.00
2022-09-25T18:08:29.016Z,100.00
2022-09-25T18:10:32.007Z,100.00
2022-09-25T18:12:34.629Z,100.00
2022-09-25T18:14:37.222Z,100.00
2022-09-25T18:16:41.614Z,100.00
2022-09-25T18:19:01.856Z,100.00
2022-09-25T18:21:23.954Z,100.00
2022-09-25T18:23:26.834Z,100.00
2022-09-25T18:25:30.144Z,100.00
2022-09-25T18:27:34.716Z,100.00
2022-09-25T18:29:37.351Z,100.00
2022-09-25T18:31:40.058Z,100.00
2022-09-25T18:33:47.299Z,100.00
2022-09-25T18:35:50.155Z,100.00
2022-09-25T18:37:54.104Z,100.00
2022-09-25T18:39:56.698Z,100.00
2022-09-25T18:41:59.392Z,100.00
2022-09-25T18:44:02.088Z,100.00
2022-09-25T18:46:04.983Z,100.00
2022-09-25T18:48:07.613Z,100.00
2022-09-25T18:50:11.158Z,100.00
2022-09-25T18:52:13.797Z,100.00
2022-09-25T18:54:17.786Z,100.00
2022-09-25T18:56:20.585Z,100.00
2022-09-25T18:58:23.205Z,100.00
2022-09-25T19:00:25.829Z,100.00
2022-09-25T19:02:30.525Z,100.00
2022-09-25T19:04:34.347Z,100.00
2022-09-25T19:06:37.300Z,100.00
2022-09-25T19:08:39.940Z,100.00
2022-09-25T19:10:44.264Z,100.00
2022-09-25T19:12:46.870Z,100.00
2022-09-25T19:14:49.590Z,100.00
2022-09-25T19:16:53.083Z,100.00
2022-09-25T19:18:55.787Z,100.00
2022-09-25T19:20:58.382Z,100.00
2022-09-25T19:23:02.486Z,100.00
2022-09-25T19:25:05.735Z,100.00
2022-09-25T19:27:10.458Z,100.00
2022-09-25T19:29:13.280Z,100.00
2022-09-25T19:31:18.559Z,100.00
2022-09-25T19:33:21.209Z,100.00
2022-09-25T19:35:24.066Z,100.00
2022-09-25T19:37:29.827Z,100.00
2022-09-25T19:39:53.084Z,100.00
2022-09-25T19:41:56.081Z,100.00
2022-09-25T19:44:11.887Z,100.00
2022-09-25T19:46:18.212Z,100.00
2022-09-25T19:48:21.162Z,100.00
2022-09-25T19:50:23.862Z,100.00
2022-09-25T19:52:26.524Z,100.00
2022-09-25T19:54:29.493Z,100.00
2022-09-25T19:56:32.122Z,100.00
2022-09-25T19:58:38.109Z,100.00
2022-09-25T20:00:43.043Z,100.00
2022-09-25T20:02:48.211Z,100.00
2022-09-25T20:04:50.833Z,100.00
2022-09-25T20:06:55.433Z,100.00
2022-09-25T20:08:58.783Z,100.00
2022-09-25T20:11:02.237Z,100.00
2022-09-25T20:13:05.716Z,100.00
2022-09-25T20:15:09.009Z,100.00
2022-09-25T20:17:13.001Z,100.00
2022-09-25T20:19:16.087Z,100.00
2022-09-25T20:21:21.275Z,100.00
2022-09-25T20:23:23.940Z,100.00
2022-09-25T20:25:27.929Z,100.00
2022-09-25T20:27:30.612Z,100.00
2022-09-25T20:29:33.207Z,100.00
2022-09-25T20:31:36.762Z,100.00
2022-09-25T20:33:42.188Z,100.00
2022-09-25T20:35:44.790Z,100.00
2022-09-25T20:37:47.919Z,100.00
2022-09-25T20:39:50.676Z,100.00
2022-09-25T20:41:53.268Z,100.00
2022-09-25T20:43:57.540Z,100.00
2022-09-25T20:46:03.895Z,100.00
2022-09-25T20:48:06.654Z,100.00
2022-09-25T20:50:11.519Z,100.00
2022-09-25T20:52:14.663Z,100.00
2022-09-25T20:54:17.466Z,100.00
2022-09-25T20:56:21.876Z,100.00
2022-09-25T20:58:24.606Z,100.00
2022-09-25T21:00:27.213Z,100.00
2022-09-25T21:02:30.182Z,100.00
2022-09-25T21:04:33.249Z,100.00
2022-09-25T21:06:38.892Z,100.00
2022-09-25T21:08:41.671Z,100.00
2022-09-25T21:10:44.457Z,100.00
2022-09-25T21:12:47.154Z,100.00
2022-09-25T21:14:50.434Z,100.00
2022-09-25T21:16:54.187Z,100.00
2022-09-25T21:18:58.679Z,100.00
2022-09-25T21:21:02.081Z,100.00
2022-09-25T21:23:06.177Z,100.00
2022-09-25T21:25:09.792Z,100.00
2022-09-25T21:27:12.444Z,100.00
2022-09-25T21:29:16.690Z,100.00
2022-09-25T21:31:20.941Z,100.00
2022-09-25T21:33:23.608Z,100.00
2022-09-25T21:35:26.198Z,100.00
2022-09-25T21:37:28.823Z,100.00
2022-09-25T21:39:32.813Z,100.00
2022-09-25T21:41:36.126Z,100.00
2022-09-25T21:43:39.350Z,100.00
2022-09-25T21:45:42.129Z,100.00
2022-09-25T21:47:44.881Z,100.00
2022-09-25T21:49:47.544Z,100.00
2022-09-25T21:51:51.040Z,100.00
2022-09-25T21:53:54.652Z,100.00
2022-09-25T21:56:03.178Z,100.00
2022-09-25T21:58:05.768Z,100.00
2022-09-25T22:00:09.911Z,100.00
2022-09-25T22:02:12.605Z,100.00
2022-09-25T22:04:16.109Z,100.00
2022-09-25T22:06:22.128Z,100.00
2022-09-25T22:08:24.746Z,100.00
2022-09-25T22:10:27.363Z,100.00
2022-09-25T22:12:31.351Z,100.00
2022-09-25T22:14:33.932Z,100.00
2022-09-25T22:16:39.530Z,100.00
2022-09-25T22:18:44.242Z,100.00
2022-09-25T22:20:46.876Z,100.00
2022-09-25T22:22:49.922Z,100.00
2022-09-25T22:24:52.577Z,100.00
2022-09-25T22:26:56.934Z,100.00
2022-09-25T22:29:00.925Z,100.00
2022-09-25T22:31:06.028Z,100.00
2022-09-25T22:33:08.656Z,100.00
2022-09-25T22:35:11.360Z,100.00
2022-09-25T22:37:14.018Z,100.00
2022-09-25T22:39:19.284Z,100.00
2022-09-25T22:41:22.121Z,100.00
2022-09-25T22:43:24.756Z,100.00
2022-09-25T22:45:29.219Z,100.00
2022-09-25T22:47:37.936Z,100.00
2022-09-25T22:49:40.584Z,100.00
2022-09-25T22:51:43.462Z,100.00
2022-09-25T22:53:46.311Z,100.00
2022-09-25T22:55:49.199Z,100.00
2022-09-25T22:57:51.796Z,100.00
2022-09-25T22:59:54.808Z,100.00
2022-09-25T23:01:58.789Z,100.00
2022-09-25T23:04:03.694Z,100.00
2022-09-25T23:06:07.015Z,100.00
2022-09-25T23:08:10.168Z,100.00
2022-09-25T23:10:12.803Z,100.00
2022-09-25T23:12:15.468Z,100.00
2022-09-25T23:14:21.695Z,100.00
2022-09-25T23:16:25.215Z,100.00
2022-09-25T23:18:32.375Z,100.00
2022-09-25T23:20:35.057Z,100.00
2022-09-25T23:22:37.737Z,100.00
2022-09-25T23:24:41.045Z,100.00
2022-09-25T23:26:44.649Z,100.00
2022-09-25T23:28:50.022Z,100.00
2022-09-25T23:30:52.798Z,100.00
2022-09-25T23:32:55.412Z,100.00
2022-09-25T23:34:59.420Z,100.00
2022-09-25T23:37:02.049Z,100.00
2022-09-25T23:39:06.283Z,100.00
2022-09-25T23:41:16.885Z,100.00
2022-09-25T23:43:19.452Z,100.00
2022-09-25T23:45:22.433Z,100.00
2022-09-25T23:47:25.088Z,100.00
2022-09-25T23:49:27.922Z,100.00
2022-09-25T23:51:32.308Z,100.00
2022-09-25T23:53:35.378Z,100.00
2022-09-25T23:55:39.803Z,100.00
2022-09-25T23:57:42.985Z,100.00
2022-09-25T23:59:45.577Z,100.00
